Aérodrome :
LOGIN :

S'inscrire | Disclaimer

   EN    FR    IT 

 










Légende :    VFR   VFR Marginal   IFR   IFR Intensif   IFR Très Intensif
Visi : 
Plafond : 
>= 8 km
>= 3000ft
5 à 8 km
1000 à 3000 ft
1500m à 5 km
500 à 1000 ft
800 à 1500m
200 à 500 ft
< 800m
< 200 ft
Symboles :   Orages  Brouillard  Fortes neiges  Fortes précipitations  Vent > 20 kt
SIGMETs :   Divers  Orages  Givrage  Turbulence  Onde Orograph.  Cendres Volcan.







- Altitude de l'aérodrome : 1860 ft
- Code IATA : GRX


LEGR - Granada

DERNIER METAR :
  • 201130Z VRB04KT 9999 SCT035CB 21/10 Q1014

METARs EXPIRÉS :
  • 201100Z VRB04KT 9999 SCT035CB 21/11 Q1015
  • 201041Z 23004KT 200V290 9999 SCT035CB 21/11 Q1015
  • 201030Z VRB03KT 9999 FEW035TCU 20/10 Q1015
  • 201000Z VRB01KT 9999 FEW035TCU 20/12 Q1015
  • 200930Z VRB01KT 9999 FEW035TCU 19/12 Q1015
  • 200900Z 00000KT 9999 FEW035 19/12 Q1015

TAF TAF LEGR
Valide du 20 à 09h jusqu'au 21 à 09h UTC


200800Z 2009/2109 VRB02KT 9999 SCT040 TX24/2015Z TN10/2106Z
TEMPO 2011/2018 4000 SHRA SCT035TCU
PROB40
TEMPO 2012/2018 VRB15G25KT 2000 TSRA SCT015 SCT030CB
Pas de NOTAMs connus pour ce terrain.
1 SIGMET publié pour la FIR Madrid (LECM) :
 
Orages noyés dans la masse
LECM SIGMET 3 VALID 201100/201300 LEVA
LECM MADRID FIR/UIR EMBD TS FCST WI N4149 W00213 - N4104 W00203 - N3944 W00548 - N4031 W00649 - N4109 W00641 - N4149 W00213 TOP FL320 STNR NC=



MET'MAP, la Météo Aéronautique d'un coup d'oeil ! - Copyright ORBIFLY Décembre 2007 - Disclaimer

ORBIFLY MET'MAP TEAM :

Programmation & Développement : Alexandra Zaïnal
Conception & Développement : Baudouin d'Aumeries
Co-Programmation & Développement : Marc-Olivier Méhu
Soutien technique & logistique : Manuel Goepfert

Contact : metmap@orbifly.com




SOURCES & CREDITS :

   NOAA